Time;durP1;ratioP1;P1;durP2;ratioP2;P2;SDS_P1;SDS_P2;PMS_P1;PMS_P2;Temp;Humidity;BMP_temperature;BMP_pressure;BME280_temperature;BME280_humidity;BME280_pressure;Samples;Min_cycle;Max_cycle;Signal;HPM_P1;HPM_P2
2022/04/20 00:01:42;;;;;;;0.50;0.50;;;;;;;5.17;65.92;99221.56;4770028;30;20051;-81
2022/04/20 00:04:11;;;;;;;0.60;0.60;;;;;;;5.14;65.83;99213.91;4769418;30;20051;-82
2022/04/20 00:06:39;;;;;;;0.60;0.60;;;;;;;5.13;66.16;99217.63;4770641;30;20078;-81
2022/04/20 00:09:06;;;;;;;0.60;0.60;;;;;;;5.07;66.38;99219.28;4770816;30;20397;-80
2022/04/20 00:11:33;;;;;;;0.60;0.60;;;;;;;5.03;66.55;99214.53;4770397;30;20051;-81
2022/04/20 00:14:00;;;;;;;0.50;0.50;;;;;;;4.94;66.58;99211.25;4770206;30;20055;-80
2022/04/20 00:16:27;;;;;;;0.60;0.60;;;;;;;4.98;66.35;99209.78;4770323;30;20059;-81
2022/04/20 00:18:54;;;;;;;0.50;0.50;;;;;;;4.98;66.16;99207.94;4784145;30;20079;-82
2022/04/20 00:21:26;;;;;;;0.50;0.50;;;;;;;4.96;66.09;99203.81;4770820;30;20060;-80
2022/04/20 00:23:56;;;;;;;0.50;0.50;;;;;;;4.95;66.08;99202.19;4770690;30;20060;-80
2022/04/20 00:26:23;;;;;;;0.50;0.50;;;;;;;4.90;65.96;99208.13;4784495;30;20083;-81
2022/04/20 00:28:50;;;;;;;0.60;0.60;;;;;;;4.89;66.02;99197.66;4770486;30;20063;-81
2022/04/20 00:31:19;;;;;;;0.60;0.60;;;;;;;4.88;65.80;99201.34;4770173;30;20516;-81
2022/04/20 00:33:46;;;;;;;0.50;0.50;;;;;;;4.86;65.30;99201.56;4784070;30;20051;-81
2022/04/20 00:36:13;;;;;;;0.60;0.60;;;;;;;4.86;65.27;99208.72;4769973;30;20056;-80
2022/04/20 00:38:40;;;;;;;0.60;0.60;;;;;;;4.78;65.27;99207.91;4786149;30;20051;-81
2022/04/20 00:41:09;;;;;;;0.50;0.50;;;;;;;4.77;65.16;99205.44;4788144;30;20074;-80
2022/04/20 00:43:37;;;;;;;0.52;0.52;;;;;;;4.74;65.09;99225.38;4787647;29;20047;-81
2022/04/20 00:46:05;;;;;;;0.60;0.60;;;;;;;4.70;64.67;99221.44;4787817;29;20120;-81
2022/04/20 00:48:35;;;;;;;0.50;0.50;;;;;;;4.67;64.77;99213.84;4786071;30;20146;-82
2022/04/20 00:51:03;;;;;;;0.60;0.60;;;;;;;4.67;64.32;99216.50;4786455;30;20059;-81
2022/04/20 00:53:30;;;;;;;0.60;0.60;;;;;;;4.69;63.83;99222.47;4785935;30;20093;-81
2022/04/20 00:55:58;;;;;;;0.50;0.50;;;;;;;4.64;63.87;99211.56;4786758;30;20055;-81
2022/04/20 00:58:25;;;;;;;0.60;0.60;;;;;;;4.61;63.82;99222.66;4787150;30;20059;-81
2022/04/20 01:00:53;;;;;;;0.50;0.50;;;;;;;4.55;64.17;99218.09;4801356;29;20062;-80
2022/04/20 01:03:21;;;;;;;0.60;0.60;;;;;;;4.52;64.14;99226.53;4789265;30;20138;-80
2022/04/20 01:06:14;;;;;;;0.60;0.60;;;;;;;4.47;63.94;99221.78;4788775;30;20059;-81
2022/04/20 01:09:08;;;;;;;0.50;0.50;;;;;;;4.47;63.94;99215.63;4765016;30;20112;-81
2022/04/20 01:11:38;;;;;;;0.60;0.60;;;;;;;4.45;64.22;99214.97;4786602;29;20078;-81
2022/04/20 01:14:26;;;;;;;0.60;0.60;;;;;;;4.41;64.29;99219.09;4771308;30;20497;-80
2022/04/20 01:17:23;;;;;;;0.60;0.60;;;;;;;4.33;64.37;99220.91;4767080;30;20110;-80
2022/04/20 01:20:15;;;;;;;0.52;0.52;;;;;;;4.35;63.98;99207.34;4766930;30;20500;-80
2022/04/20 01:23:11;;;;;;;0.50;0.50;;;;;;;4.32;64.29;99213.09;4748082;30;20099;-81
2022/04/20 01:26:07;;;;;;;0.60;0.60;;;;;;;4.22;64.54;99204.59;4755191;30;20051;-80
2022/04/20 01:28:55;;;;;;;0.50;0.50;;;;;;;4.24;64.07;99195.38;4766919;30;20052;-81
2022/04/20 01:31:57;;;;;;;0.60;0.60;;;;;;;4.18;64.15;99177.47;4714258;30;20152;-80
2022/04/20 01:34:47;;;;;;;0.50;0.50;;;;;;;4.18;63.81;99185.50;4711084;30;20061;-81
2022/04/20 01:37:14;;;;;;;0.60;0.60;;;;;;;4.17;63.58;99189.16;4714042;30;20064;-79
2022/04/20 01:39:42;;;;;;;0.60;0.60;;;;;;;4.16;63.14;99176.84;4713714;30;20072;-80
2022/04/20 01:42:10;;;;;;;0.60;0.60;;;;;;;4.11;63.40;99181.97;4699379;30;20435;-81
2022/04/20 01:44:44;;;;;;;0.60;0.60;;;;;;;4.07;63.52;99172.69;4713942;30;20053;-81
2022/04/20 01:47:46;;;;;;;0.50;0.50;;;;;;;4.04;62.98;99171.25;4712770;30;20069;-80
2022/04/20 01:54:00;;;;;;;0.60;0.60;;;;;;;3.93;63.09;99179.81;4732477;30;20072;-80
2022/04/20 01:56:53;;;;;;;0.60;0.60;;;;;;;3.93;62.65;99184.34;4746486;30;20092;-81
2022/04/20 01:59:26;;;;;;;0.60;0.60;;;;;;;3.89;62.62;99184.72;4745839;30;20125;-81
2022/04/20 02:04:58;;;;;;;0.60;0.60;;;;;;;3.80;62.67;99183.25;4729984;30;20083;-80
2022/04/20 02:07:25;;;;;;;0.60;0.60;;;;;;;3.79;62.59;99172.75;4774412;30;20420;-81
2022/04/20 02:09:53;;;;;;;0.60;0.60;;;;;;;3.81;62.60;99176.88;4798484;29;20055;-82
2022/04/20 02:12:20;;;;;;;0.60;0.60;;;;;;;3.79;62.12;99170.91;4787065;29;20059;-81
2022/04/20 02:15:11;;;;;;;0.70;0.70;;;;;;;3.85;61.46;99170.13;4781002;30;20059;-82
2022/04/20 02:17:58;;;;;;;0.70;0.70;;;;;;;3.85;61.11;99183.47;4767412;29;20515;-81
2022/04/20 02:20:48;;;;;;;0.60;0.60;;;;;;;3.84;61.18;99181.81;4767841;30;20436;-81
2022/04/20 02:23:16;;;;;;;0.65;0.65;;;;;;;3.82;61.23;99180.34;4766664;30;20095;-81
2022/04/20 02:25:43;;;;;;;0.70;0.70;;;;;;;3.77;60.90;99180.94;4768260;30;20058;-82
2022/04/20 02:28:11;;;;;;;0.70;0.70;;;;;;;3.77;60.81;99164.91;4767133;30;20066;-82
2022/04/20 02:30:38;;;;;;;0.70;0.70;;;;;;;3.78;60.39;99163.91;4772949;30;20059;-81
2022/04/20 02:33:05;;;;;;;0.68;0.68;;;;;;;3.80;59.83;99177.91;4785780;29;20142;-80
2022/04/20 02:35:32;;;;;;;0.63;0.63;;;;;;;3.81;59.60;99189.41;4770490;30;20059;-81
2022/04/20 02:37:59;;;;;;;0.60;0.60;;;;;;;3.80;59.45;99174.38;4785869;29;20057;-80
2022/04/20 02:40:27;;;;;;;0.60;0.60;;;;;;;3.78;59.11;99184.47;4781433;30;20074;-81
2022/04/20 02:42:53;;;;;;;0.60;0.60;;;;;;;3.80;58.53;99188.59;4768174;30;20054;-81
2022/04/20 02:45:21;;;;;;;0.60;0.60;;;;;;;3.83;57.93;99177.50;4767756;30;20087;-80
2022/04/20 02:47:48;;;;;;;0.60;0.60;;;;;;;3.86;57.49;99185.09;4768297;30;20063;-80
2022/04/20 02:50:15;;;;;;;0.60;0.60;;;;;;;3.89;57.23;99191.91;4781531;30;20059;-81
2022/04/20 02:52:43;;;;;;;0.60;0.60;;;;;;;3.89;56.96;99192.72;4781559;30;20060;-81
2022/04/20 02:55:10;;;;;;;0.60;0.60;;;;;;;3.93;56.90;99192.34;4781818;30;20063;-82
2022/04/20 02:57:38;;;;;;;0.60;0.60;;;;;;;3.96;56.21;99199.97;4781131;30;20060;-81
2022/04/20 03:00:06;;;;;;;0.60;0.60;;;;;;;4.02;55.53;99193.81;4774016;30;20516;-80
2022/04/20 03:02:42;;;;;;;0.60;0.60;;;;;;;4.07;55.37;99210.91;4783861;30;20147;-80
2022/04/20 03:05:10;;;;;;;0.50;0.50;;;;;;;4.10;54.83;99209.69;4799418;29;20071;-81
2022/04/20 03:07:38;;;;;;;0.60;0.60;;;;;;;4.13;54.17;99203.97;4799175;29;20055;-81
2022/04/20 03:10:05;;;;;;;0.50;0.50;;;;;;;4.20;53.87;99209.31;4784712;30;20061;-82
2022/04/20 03:12:38;;;;;;;0.60;0.60;;;;;;;4.26;53.36;99204.03;4799359;29;20085;-82
2022/04/20 03:15:07;;;;;;;0.60;0.60;;;;;;;4.28;53.27;99196.63;4784791;30;20048;-82
2022/04/20 03:17:34;;;;;;;0.60;0.60;;;;;;;4.36;52.49;99198.31;4789389;30;20061;-82
2022/04/20 03:20:01;;;;;;;0.60;0.60;;;;;;;4.42;51.96;99189.47;4787958;29;20134;-82
2022/04/20 03:22:29;;;;;;;0.60;0.60;;;;;;;4.49;51.20;99197.53;4784215;29;20539;-82
2022/04/20 03:24:57;;;;;;;0.63;0.63;;;;;;;4.55;50.27;99197.53;4799197;29;20062;-82
2022/04/20 03:27:50;;;;;;;0.60;0.60;;;;;;;4.64;49.58;99198.19;4780237;30;20074;-81
2022/04/20 03:30:20;;;;;;;0.60;0.60;;;;;;;4.69;49.24;99197.59;4776400;30;20100;-81
2022/04/20 03:32:47;;;;;;;0.60;0.60;;;;;;;4.75;49.15;99189.56;4784041;30;20051;-82
2022/04/20 03:35:15;;;;;;;0.60;0.60;;;;;;;4.80;48.59;99183.63;4786576;29;20057;-80
2022/04/20 03:37:43;;;;;;;0.60;0.60;;;;;;;4.87;48.33;99189.81;4773650;30;20051;-81
2022/04/20 03:40:10;;;;;;;0.60;0.60;;;;;;;4.91;47.97;99180.38;4788080;30;20520;-82
2022/04/20 03:42:37;;;;;;;0.60;0.60;;;;;;;4.99;47.39;99185.53;4803274;29;20470;-82
2022/04/20 03:45:09;;;;;;;0.60;0.60;;;;;;;5.05;46.85;99181.19;4789219;29;20117;-81
2022/04/20 03:47:38;;;;;;;0.60;0.60;;;;;;;5.13;46.21;99172.97;4788947;29;20063;-81
2022/04/20 03:50:06;;;;;;;0.60;0.60;;;;;;;5.21;45.80;99166.59;4786640;29;20058;-82
2022/04/20 03:52:34;;;;;;;0.65;0.65;;;;;;;5.28;45.05;99161.25;4784686;30;20478;-81
2022/04/20 03:55:01;;;;;;;0.60;0.60;;;;;;;5.37;44.36;99160.03;4785070;30;20170;-85
2022/04/20 03:57:30;;;;;;;0.60;0.60;;;;;;;5.46;43.88;99160.63;4799739;29;20148;-82
2022/04/20 03:59:58;;;;;;;0.63;0.63;;;;;;;5.55;42.76;99164.75;4784767;30;20054;-83
2022/04/20 04:02:26;;;;;;;0.70;0.70;;;;;;;5.58;43.04;99165.13;4455803;29;9999976;-81
2022/04/20 04:05:12;;;;;;;0.60;0.60;;;;;;;5.64;42.25;99160.78;4748879;30;20059;-82
2022/04/20 04:07:48;;;;;;;0.63;0.63;;;;;;;5.70;42.10;99167.16;4749977;30;20456;-84
2022/04/20 04:10:20;;;;;;;0.70;0.70;;;;;;;5.75;42.01;99168.19;4752087;30;20060;-86
2022/04/20 04:12:48;;;;;;;0.70;0.70;;;;;;;5.82;41.58;99171.69;4751548;30;20076;-84
2022/04/20 04:15:15;;;;;;;0.70;0.70;;;;;;;5.90;41.53;99169.81;4752031;30;20121;-83
2022/04/20 04:17:43;;;;;;;0.70;0.70;;;;;;;5.96;41.45;99171.69;4751346;30;20495;-84
2022/04/20 04:20:10;;;;;;;0.70;0.70;;;;;;;6.02;41.33;99174.31;4752130;30;20056;-84
2022/04/20 04:22:37;;;;;;;0.60;0.60;;;;;;;6.08;40.85;99181.53;4751727;30;20516;-85
2022/04/20 04:25:23;;;;;;;0.60;0.60;;;;;;;6.11;40.97;99168.75;4757066;30;20032;-83
2022/04/20 04:27:54;;;;;;;0.60;0.60;;;;;;;6.16;40.89;99187.72;4755229;30;20112;-83
2022/04/20 04:30:23;;;;;;;0.70;0.70;;;;;;;6.24;40.65;99177.56;4776330;30;20064;-83
2022/04/20 04:32:59;;;;;;;0.60;0.60;;;;;;;6.29;40.39;99193.00;4753524;30;20052;-84
2022/04/20 04:35:28;;;;;;;0.60;0.60;;;;;;;6.36;40.74;99196.50;4768872;30;20222;-85
2022/04/20 04:37:59;;;;;;;0.70;0.70;;;;;;;6.42;40.38;99184.91;4756588;30;20079;-84
2022/04/20 04:40:30;;;;;;;0.50;0.50;;;;;;;6.51;39.73;99202.41;4765131;30;20052;-83
2022/04/20 04:42:59;;;;;;;0.60;0.60;;;;;;;6.58;39.83;99202.34;4736903;30;20052;-83
2022/04/20 04:48:39;;;;;;;0.60;0.60;;;;;;;6.70;38.97;99215.94;4750762;30;20590;-84
2022/04/20 04:51:10;;;;;;;0.50;0.50;;;;;;;6.81;38.51;99226.00;4780757;30;20570;-85
2022/04/20 04:53:41;;;;;;;0.55;0.55;;;;;;;6.87;38.33;99235.84;4751032;30;20087;-83
2022/04/20 04:56:15;;;;;;;0.60;0.60;;;;;;;7.00;37.97;99239.50;4764358;30;20064;-84
2022/04/20 04:58:46;;;;;;;0.50;0.50;;;;;;;7.11;37.39;99241.50;4751097;30;20063;-84
2022/04/20 05:01:14;;;;;;;0.60;0.60;;;;;;;7.15;36.54;99245.41;4751160;30;20056;-84
2022/04/20 05:03:42;;;;;;;0.60;0.60;;;;;;;7.14;36.13;99238.38;4752332;30;20056;-85
2022/04/20 05:06:12;;;;;;;0.60;0.60;;;;;;;7.31;35.95;99236.00;4752654;30;20056;-84
2022/04/20 05:09:02;;;;;;;0.60;0.60;;;;;;;7.44;36.10;99243.13;4748203;30;20064;-84
2022/04/20 05:11:30;;;;;;;0.60;0.60;;;;;;;7.53;35.79;99228.41;4765353;30;20055;-84
2022/04/20 05:13:58;;;;;;;0.60;0.60;;;;;;;7.52;34.60;99234.78;4781788;30;20062;-83
2022/04/20 05:16:26;;;;;;;0.52;0.52;;;;;;;7.46;34.48;99233.00;4751033;30;20054;-84
2022/04/20 05:18:54;;;;;;;0.60;0.60;;;;;;;7.47;34.63;99231.94;4750455;30;20056;-84
2022/04/20 05:21:23;;;;;;;0.50;0.50;;;;;;;7.52;34.86;99232.09;4751887;30;20429;-84
2022/04/20 05:23:54;;;;;;;0.60;0.60;;;;;;;7.55;34.73;99234.38;4750140;30;20150;-83
2022/04/20 05:26:22;;;;;;;0.60;0.60;;;;;;;7.52;34.76;99237.47;4765342;30;20052;-84
2022/04/20 05:28:49;;;;;;;0.60;0.60;;;;;;;7.56;35.39;99236.00;4751761;30;20060;-85
2022/04/20 05:31:17;;;;;;;0.60;0.60;;;;;;;7.63;35.36;99235.97;4752221;30;20155;-84
2022/04/20 05:33:44;;;;;;;0.60;0.60;;;;;;;7.66;35.43;99235.53;4784367;30;20060;-83
2022/04/20 05:36:14;;;;;;;0.57;0.57;;;;;;;7.65;35.37;99236.56;4751668;30;20079;-84
2022/04/20 05:41:42;;;;;;;0.60;0.60;;;;;;;7.72;35.72;99248.06;4435205;29;10000052;-85
2022/04/20 05:44:16;;;;;;;0.50;0.50;;;;;;;7.78;35.60;99250.69;4755027;30;20426;-82
2022/04/20 05:46:43;;;;;;;0.60;0.60;;;;;;;7.89;35.60;99245.66;4761343;30;20511;-84
2022/04/20 05:49:14;;;;;;;0.60;0.60;;;;;;;7.98;35.94;99244.34;4763520;30;20427;-84
2022/04/20 05:51:42;;;;;;;0.60;0.60;;;;;;;8.11;35.41;99254.13;4778646;30;20063;-83
2022/04/20 05:54:09;;;;;;;0.60;0.60;;;;;;;8.08;35.44;99244.63;4762134;30;20501;-83
2022/04/20 05:56:37;;;;;;;0.60;0.60;;;;;;;8.13;35.07;99242.09;4777667;30;20059;-83
2022/04/20 05:59:05;;;;;;;0.60;0.60;;;;;;;8.22;35.15;99251.50;4758850;30;20461;-83
2022/04/20 06:01:35;;;;;;;0.60;0.60;;;;;;;8.28;34.67;99254.34;4764248;30;20132;-86
2022/04/20 06:04:18;;;;;;;0.50;0.50;;;;;;;8.40;34.85;99263.34;4775800;30;20397;-83
2022/04/20 06:07:00;;;;;;;0.50;0.50;;;;;;;8.42;34.54;99262.09;4765933;29;20121;-85
2022/04/20 06:09:33;;;;;;;0.60;0.60;;;;;;;8.51;34.73;99277.91;4779485;30;20471;-84
2022/04/20 06:12:12;;;;;;;0.60;0.60;;;;;;;8.69;34.64;99275.25;4765819;30;20060;-84
2022/04/20 06:14:58;;;;;;;0.60;0.60;;;;;;;8.78;34.35;99270.34;4765737;30;20087;-83
2022/04/20 06:18:01;;;;;;;0.60;0.60;;;;;;;8.80;34.54;99274.47;4744290;30;20056;-83
2022/04/20 06:20:29;;;;;;;0.60;0.60;;;;;;;8.92;34.59;99279.09;4744949;30;20090;-81
2022/04/20 06:23:16;;;;;;;0.60;0.60;;;;;;;9.15;34.60;99286.44;4732295;30;20088;-84
2022/04/20 06:26:15;;;;;;;0.60;0.60;;;;;;;9.36;34.67;99283.22;4738310;30;20064;-82
2022/04/20 06:28:59;;;;;;;0.60;0.60;;;;;;;9.53;34.59;99278.03;4744643;30;20052;-83
2022/04/20 06:31:52;;;;;;;0.60;0.60;;;;;;;9.68;34.37;99281.09;4741736;30;20056;-82
2022/04/20 06:34:47;;;;;;;0.60;0.60;;;;;;;9.70;34.13;99270.09;4744541;30;20064;-83
2022/04/20 06:37:39;;;;;;;0.60;0.60;;;;;;;9.75;34.33;99264.81;4730154;30;20060;-83
2022/04/20 06:40:27;;;;;;;0.60;0.60;;;;;;;9.75;34.39;99254.03;4744507;30;20060;-82
2022/04/20 06:43:45;;;;;;;0.50;0.50;;;;;;;9.93;34.69;99264.72;4746163;30;20457;-81
2022/04/20 06:46:35;;;;;;;0.60;0.60;;;;;;;9.96;34.60;99249.94;4736538;30;20056;-82
2022/04/20 06:49:03;;;;;;;0.50;0.50;;;;;;;10.01;34.70;99243.84;4744517;30;20060;-82
2022/04/20 07:00:12;;;;;;;0.60;0.60;;;;;;;10.21;34.24;99230.81;4771171;29;20593;-82
2022/04/20 07:03:01;;;;;;;0.60;0.60;;;;;;;10.23;34.11;99223.31;4766970;30;20062;-81
2022/04/20 07:05:38;;;;;;;0.50;0.50;;;;;;;10.36;34.27;99227.66;4767477;30;20155;-83
2022/04/20 07:08:24;;;;;;;0.60;0.60;;;;;;;10.45;33.78;99228.91;4755476;30;20664;-82
2022/04/20 07:11:02;;;;;;;0.60;0.60;;;;;;;10.43;34.11;99238.31;4785634;30;20056;-81
2022/04/20 07:13:31;;;;;;;0.50;0.50;;;;;;;10.45;33.78;99241.59;4770319;30;20087;-82
2022/04/20 07:15:58;;;;;;;0.50;0.50;;;;;;;10.58;34.08;99252.13;4785462;30;20127;-82
2022/04/20 07:18:28;;;;;;;0.50;0.50;;;;;;;10.68;34.01;99252.31;4785936;30;20520;-83
2022/04/20 07:21:03;;;;;;;0.50;0.50;;;;;;;10.84;33.83;99243.50;4772554;30;20545;-82
2022/04/20 07:23:36;;;;;;;0.50;0.50;;;;;;;11.03;33.19;99248.69;4771457;30;20527;-83
2022/04/20 07:26:26;;;;;;;0.50;0.50;;;;;;;11.08;32.43;99237.97;4771637;30;20052;-82
2022/04/20 07:29:18;;;;;;;0.60;0.60;;;;;;;11.06;32.42;99242.81;4785467;30;20056;-82
2022/04/20 07:31:46;;;;;;;0.50;0.50;;;;;;;11.19;32.24;99230.88;4775141;30;20133;-82
2022/04/20 07:34:38;;;;;;;0.60;0.60;;;;;;;11.23;32.30;99230.16;4785193;30;20058;-82
2022/04/20 07:37:28;;;;;;;0.60;0.60;;;;;;;11.30;32.00;99242.72;4785462;29;20406;-81
2022/04/20 07:40:14;;;;;;;0.60;0.60;;;;;;;11.49;31.75;99233.28;4771340;30;20047;-82
2022/04/20 07:42:44;;;;;;;0.60;0.60;;;;;;;11.48;31.82;99231.66;4771000;30;20536;-83
2022/04/20 07:45:14;;;;;;;0.60;0.60;;;;;;;11.61;32.21;99225.13;4771288;30;20052;-82
2022/04/20 07:47:59;;;;;;;0.50;0.50;;;;;;;11.67;32.70;99222.25;4771336;30;20527;-84
2022/04/20 07:50:38;;;;;;;0.70;0.70;;;;;;;11.84;32.49;99224.94;4800783;30;20079;-83
2022/04/20 07:53:25;;;;;;;0.60;0.60;;;;;;;11.89;31.98;99230.44;4778032;30;20051;-81
2022/04/20 07:55:55;;;;;;;0.60;0.60;;;;;;;12.08;31.84;99216.66;4771243;30;20055;-81
2022/04/20 07:59:02;;;;;;;;;;;;;;;;;;;;;
2022/04/20 08:02:00;;;;;;;0.60;0.60;;;;;;;12.53;30.78;99211.03;4766210;30;20467;-81
2022/04/20 08:04:51;;;;;;;0.60;0.60;;;;;;;12.67;30.82;99206.03;4773450;30;20475;-82
2022/04/20 08:07:24;;;;;;;0.70;0.70;;;;;;;12.84;30.43;99214.09;4780694;30;20055;-83
2022/04/20 08:09:53;;;;;;;0.60;0.60;;;;;;;13.07;30.33;99215.69;4793820;30;20055;-84
2022/04/20 08:12:21;;;;;;;0.63;0.60;;;;;;;13.18;30.15;99213.91;4773384;29;20048;-82
2022/04/20 08:14:48;;;;;;;0.70;0.70;;;;;;;13.33;29.59;99210.53;4773570;30;20056;-83
2022/04/20 08:17:32;;;;;;;0.60;0.60;;;;;;;13.50;29.63;99194.16;4785197;30;20083;-82
2022/04/20 08:20:18;;;;;;;0.70;0.70;;;;;;;13.78;29.29;99203.88;4770877;30;20128;-82
2022/04/20 08:22:58;;;;;;;0.60;0.60;;;;;;;14.13;28.65;99206.00;4784114;30;20504;-82
2022/04/20 08:25:25;;;;;;;0.70;0.70;;;;;;;14.60;28.41;99207.84;4784295;30;20072;-81
2022/04/20 08:27:52;;;;;;;0.70;0.70;;;;;;;14.75;27.87;99212.53;4770345;30;20136;-82
2022/04/20 08:30:20;;;;;;;0.70;0.70;;;;;;;14.56;27.45;99204.06;4786604;30;20112;-82
2022/04/20 08:32:47;;;;;;;0.70;0.70;;;;;;;14.54;27.52;99197.25;4771485;30;20186;-81
2022/04/20 08:35:14;;;;;;;0.60;0.60;;;;;;;14.57;27.66;99208.38;4771409;30;20052;-82
2022/04/20 08:37:42;;;;;;;0.60;0.60;;;;;;;14.62;27.27;99216.56;4770378;30;20059;-82
2022/04/20 08:40:10;;;;;;;0.70;0.70;;;;;;;14.99;27.03;99203.88;4784150;30;20483;-82
2022/04/20 08:42:37;;;;;;;0.70;0.70;;;;;;;15.21;26.17;99209.91;4770791;30;20105;-81
2022/04/20 08:45:04;;;;;;;0.60;0.60;;;;;;;15.23;26.38;99205.03;4770172;30;20124;-83
2022/04/20 08:47:38;;;;;;;0.70;0.70;;;;;;;15.30;26.03;99194.69;4772120;29;20468;-82
2022/04/20 08:50:07;;;;;;;0.70;0.70;;;;;;;15.78;25.42;99191.72;4774218;30;20068;-82
2022/04/20 08:52:42;;;;;;;0.70;0.70;;;;;;;15.97;25.68;99198.22;4773989;30;20068;-83
2022/04/20 08:55:11;;;;;;;0.70;0.70;;;;;;;16.19;25.07;99191.66;4770189;30;20520;-83
2022/04/20 08:57:40;;;;;;;0.70;0.70;;;;;;;16.75;24.73;99191.41;4769317;30;20059;-83
2022/04/20 09:00:12;;;;;;;0.70;0.70;;;;;;;17.38;24.25;99181.78;4769259;29;20082;-82
2022/04/20 09:02:40;;;;;;;0.70;0.70;;;;;;;17.30;23.97;99184.00;4770417;30;20060;-84
2022/04/20 09:05:09;;;;;;;0.70;0.70;;;;;;;17.11;23.54;99174.88;4441462;29;10000633;-85
2022/04/20 09:07:45;;;;;;;0.70;0.70;;;;;;;16.86;22.97;99182.13;4772145;30;20107;-83
2022/04/20 09:10:13;;;;;;;0.70;0.70;;;;;;;16.90;23.07;99175.00;4770753;30;20058;-86
2022/04/20 09:12:42;;;;;;;0.70;0.70;;;;;;;17.25;22.78;99172.31;4764002;30;20081;-85
2022/04/20 09:15:12;;;;;;;0.70;0.70;;;;;;;17.25;22.83;99177.78;4767635;30;20104;-89
2022/04/20 09:17:44;;;;;;;0.60;0.60;;;;;;;17.28;22.51;99185.38;4765480;30;20230;-84
2022/04/20 09:20:19;;;;;;;0.70;0.70;;;;;;;17.63;22.73;99184.28;4761258;30;20055;-85
2022/04/20 09:23:02;;;;;;;0.60;0.60;;;;;;;17.86;22.37;99195.56;4769441;30;20429;-85
2022/04/20 09:25:37;;;;;;;0.80;0.80;;;;;;;17.66;21.84;99189.16;4766434;30;20109;-85
2022/04/20 09:28:04;;;;;;;;;;;;;;;17.55;21.88;99195.81;4764702;30;20392;-84
2022/04/20 09:30:39;;;;;;;0.70;0.70;;;;;;;17.60;21.05;99195.78;4766213;30;20390;-86
2022/04/20 09:33:07;;;;;;;0.70;0.70;;;;;;;17.82;21.01;99197.25;4765950;30;20056;-86
2022/04/20 09:35:42;;;;;;;0.73;0.73;;;;;;;17.79;20.84;99209.53;4765587;30;20182;-85
2022/04/20 09:38:09;;;;;;;0.70;0.70;;;;;;;17.96;20.65;99203.66;4767264;30;20060;-85
2022/04/20 09:41:10;;;;;;;0.70;0.70;;;;;;;18.39;20.39;99201.03;4763198;30;20401;-84
2022/04/20 09:43:38;;;;;;;0.60;0.60;;;;;;;18.43;20.14;99193.84;4747826;30;20117;-83
2022/04/20 09:49:12;;;;;;;0.70;0.70;;;;;;;18.70;20.13;99195.16;4746399;30;20125;-84
2022/04/20 09:51:42;;;;;;;0.70;0.70;;;;;;;19.10;19.60;99190.28;4747136;30;20063;-86
2022/04/20 09:54:29;;;;;;;0.60;0.60;;;;;;;19.15;19.72;99188.28;4754878;30;20094;-83
2022/04/20 09:57:12;;;;;;;0.70;0.70;;;;;;;19.96;19.46;99181.78;4764248;30;20055;-84
2022/04/20 09:59:59;;;;;;;0.70;0.70;;;;;;;20.42;18.81;99191.84;4771534;30;20070;-86
2022/04/20 10:02:51;;;;;;;0.65;0.65;;;;;;;20.21;18.55;99183.22;4773015;30;20055;-84
2022/04/20 10:05:20;;;;;;;0.80;0.80;;;;;;;20.32;18.43;99199.13;4758997;30;20456;-83
2022/04/20 10:07:58;;;;;;;0.80;0.80;;;;;;;20.27;18.33;99192.94;4761632;30;20059;-85
2022/04/20 10:10:27;;;;;;;0.60;0.60;;;;;;;20.17;18.33;99196.69;4754440;30;20068;-85
2022/04/20 10:12:54;;;;;;;0.60;0.60;;;;;;;20.19;18.22;99201.88;4745444;30;20052;-85
2022/04/20 10:18:22;;;;;;;0.60;0.60;;;;;;;20.53;18.04;99204.22;4764882;30;20063;-84
2022/04/20 10:20:50;;;;;;;0.70;0.70;;;;;;;20.67;17.86;99201.50;4764929;30;20059;-85
2022/04/20 10:23:20;;;;;;;0.70;0.70;;;;;;;20.69;17.59;99200.06;4763842;30;20098;-85
2022/04/20 10:25:50;;;;;;;0.60;0.60;;;;;;;20.46;17.80;99199.16;4764252;30;20105;-85
2022/04/20 10:28:19;;;;;;;0.60;0.60;;;;;;;20.33;17.70;99195.31;4765198;30;20146;-85
2022/04/20 10:31:11;;;;;;;0.70;0.70;;;;;;;20.62;18.09;99194.19;4765123;30;20059;-84
2022/04/20 10:33:41;;;;;;;0.70;0.70;;;;;;;21.38;17.53;99193.59;4777712;30;20496;-86
2022/04/20 10:36:31;;;;;;;0.50;0.50;;;;;;;21.79;17.00;99187.91;4765553;30;20052;-84
2022/04/20 10:39:22;;;;;;;0.60;0.60;;;;;;;21.43;16.74;99182.50;4764444;30;20051;-85
2022/04/20 10:42:21;;;;;;;0.70;0.70;;;;;;;21.31;17.10;99182.22;4745743;30;20059;-81
2022/04/20 10:45:00;;;;;;;0.70;0.70;;;;;;;21.75;16.95;99197.09;4744531;30;20531;-84
2022/04/20 10:47:32;;;;;;;0.60;0.60;;;;;;;21.76;16.92;99187.75;4729422;30;20060;-84
2022/04/20 10:50:13;;;;;;;0.50;0.50;;;;;;;20.76;17.84;99195.00;4742037;30;20424;-83
2022/04/20 10:52:42;;;;;;;0.45;0.45;;;;;;;20.37;17.90;99189.19;4747326;30;20063;-83
2022/04/20 10:55:11;;;;;;;0.60;0.60;;;;;;;20.24;17.93;99199.03;4746538;30;20059;-84
2022/04/20 10:57:42;;;;;;;0.70;0.70;;;;;;;20.82;17.70;99187.47;4747097;30;20083;-83
2022/04/20 11:00:21;;;;;;;0.70;0.70;;;;;;;21.62;17.12;99187.78;4746435;30;20048;-83
2022/04/20 11:02:50;;;;;;;0.60;0.60;;;;;;;21.86;16.69;99190.22;4731970;30;20531;-83
2022/04/20 11:05:21;;;;;;;0.70;0.70;;;;;;;21.50;16.90;99190.31;4732139;30;20111;-84
2022/04/20 11:08:12;;;;;;;0.60;0.60;;;;;;;22.02;16.83;99180.44;4747433;30;20051;-85
2022/04/20 11:10:43;;;;;;;0.70;0.70;;;;;;;22.71;16.55;99176.31;4743564;30;20063;-83
2022/04/20 11:19:13;;;;;;;0.60;0.60;;;;;;;23.24;15.99;99171.69;4759001;30;20060;-86
2022/04/20 11:22:12;;;;;;;0.60;0.60;;;;;;;23.45;15.79;99169.91;4730881;30;20150;-85
2022/04/20 11:24:43;;;;;;;0.70;0.70;;;;;;;22.94;16.46;99163.25;4730630;30;20106;-85
2022/04/20 11:27:11;;;;;;;0.60;0.60;;;;;;;22.94;16.19;99155.00;4730513;30;20080;-84
2022/04/20 11:29:42;;;;;;;0.60;0.60;;;;;;;23.45;15.81;99158.09;4730433;30;20072;-84
2022/04/20 11:32:10;;;;;;;0.60;0.60;;;;;;;23.87;16.11;99172.13;4716243;30;20064;-85
2022/04/20 11:35:06;;;;;;;0.60;0.60;;;;;;;23.64;16.28;99168.75;4730690;30;20465;-85
2022/04/20 11:37:34;;;;;;;0.60;0.60;;;;;;;24.18;16.66;99158.88;4721708;30;20052;-84
2022/04/20 11:40:12;;;;;;;0.60;0.60;;;;;;;24.27;16.29;99155.25;4729124;30;20433;-84
2022/04/20 11:42:41;;;;;;;0.60;0.60;;;;;;;24.06;16.61;99149.69;4734963;30;20135;-84
2022/04/20 11:45:08;;;;;;;0.60;0.60;;;;;;;24.32;16.17;99141.28;4724884;30;20056;-84
2022/04/20 11:47:40;;;;;;;0.50;0.50;;;;;;;24.23;16.20;99144.91;4716294;30;20060;-85
2022/04/20 11:50:16;;;;;;;0.55;0.55;;;;;;;24.24;16.48;99140.19;4698692;30;20058;-85
2022/04/20 11:52:59;;;;;;;0.60;0.60;;;;;;;24.33;15.83;99131.84;4680939;30;20088;-85
2022/04/20 11:55:52;;;;;;;0.60;0.60;;;;;;;24.43;15.47;99115.75;4662896;30;20521;-89
2022/04/20 11:58:20;;;;;;;0.60;0.60;;;;;;;24.56;15.70;99116.69;4702070;30;20060;-85
2022/04/20 12:00:57;;;;;;;0.60;0.60;;;;;;;24.56;15.03;99111.16;4703117;30;20061;-86
2022/04/20 12:03:24;;;;;;;0.60;0.60;;;;;;;24.80;15.12;99112.44;4710340;30;20225;-85
2022/04/20 12:06:07;;;;;;;0.50;0.50;;;;;;;25.31;14.67;99104.88;4712877;30;20074;-87
2022/04/20 12:08:36;;;;;;;0.55;0.55;;;;;;;24.88;14.88;99114.31;4724010;30;20067;-86
2022/04/20 12:11:06;;;;;;;0.50;0.50;;;;;;;24.10;15.58;99103.75;4732813;30;20109;-86
2022/04/20 12:13:33;;;;;;;0.40;0.40;;;;;;;22.89;16.37;99124.91;4709430;30;20053;-88
2022/04/20 12:16:05;;;;;;;0.30;0.30;;;;;;;21.71;17.37;99109.03;4725005;30;20074;-87
2022/04/20 12:18:41;;;;;;;0.40;0.40;;;;;;;21.38;17.64;99112.06;4703339;30;20069;-87
2022/04/20 12:21:27;;;;;;;;;;;;;;;21.62;17.42;99105.41;4725402;30;20147;-86
2022/04/20 12:23:55;;;;;;;0.60;0.60;;;;;;;21.93;17.27;99115.59;4731427;30;20044;-86
2022/04/20 12:26:28;;;;;;;0.70;0.70;;;;;;;22.99;16.45;99096.25;4745168;30;20076;-87
2022/04/20 12:28:59;;;;;;;0.70;0.70;;;;;;;23.45;15.54;99092.00;4735816;30;20135;-88
2022/04/20 12:31:27;;;;;;;0.70;0.70;;;;;;;23.61;15.77;99095.81;4733559;30;20105;-87
2022/04/20 12:34:01;;;;;;;0.70;0.70;;;;;;;24.12;15.49;99085.75;4767938;30;20079;-85
2022/04/20 12:36:31;;;;;;;0.65;0.65;;;;;;;24.39;15.37;99076.19;4767337;30;20067;-87
2022/04/20 12:39:00;;;;;;;0.55;0.55;;;;;;;24.52;15.21;99084.56;4743896;30;20051;-88
2022/04/20 12:41:46;;;;;;;0.60;0.60;;;;;;;24.85;15.61;99090.16;4767407;30;20512;-87
2022/04/20 12:44:34;;;;;;;0.52;0.52;;;;;;;25.58;14.78;99088.84;4768720;30;20111;-87
2022/04/20 12:47:16;;;;;;;0.50;0.50;;;;;;;25.74;14.36;99073.19;4768278;30;20055;-88